Time;durP1;ratioP1;P1;durP2;ratioP2;P2;SDS_P1;SDS_P2;PMS_P1;PMS_P2;Temp;Humidity;BMP_temperature;BMP_pressure;BME280_temperature;BME280_humidity;BME280_pressure;Samples;Min_cycle;Max_cycle;Signal;HPM_P1;HPM_P2
2022/03/04 00:01:24;;;;;;;1999.90;315.17;;;1.00;99.90;;;;;;4955881;29;20955;-76
2022/03/04 00:03:53;;;;;;;522.03;83.70;;;1.00;99.90;;;;;;4966649;28;20534;-76
2022/03/04 00:06:22;;;;;;;608.50;82.57;;;0.90;99.90;;;;;;4965387;28;20497;-76
2022/03/04 00:08:59;;;;;;;585.40;71.83;;;0.90;99.90;;;;;;4956077;28;20449;-77
2022/03/04 00:11:32;;;;;;;1999.90;290.83;;;0.90;99.90;;;;;;4956190;29;20545;-77
2022/03/04 00:14:01;;;;;;;618.13;93.27;;;0.80;99.90;;;;;;4956046;28;20477;-76
2022/03/04 00:16:31;;;;;;;485.43;72.03;;;0.80;99.90;;;;;;4955965;28;20545;-77
2022/03/04 00:19:10;;;;;;;1999.90;249.93;;;0.80;99.90;;;;;;4955998;28;20435;-77
2022/03/04 00:21:41;;;;;;;615.73;85.27;;;0.80;99.90;;;;;;4955215;28;20835;-77
2022/03/04 00:24:10;;;;;;;1723.57;157.70;;;0.80;99.90;;;;;;4956656;28;20470;-77
2022/03/04 00:26:41;;;;;;;546.23;84.23;;;0.70;99.90;;;;;;4955896;28;20465;-77
2022/03/04 00:29:11;;;;;;;624.90;106.40;;;0.70;99.90;;;;;;4955899;28;20461;-77
2022/03/04 00:31:40;;;;;;;1999.90;294.47;;;0.70;99.90;;;;;;4957235;29;20439;-77
2022/03/04 00:34:10;;;;;;;695.47;88.97;;;0.70;99.90;;;;;;4955765;28;20470;-77
2022/03/04 00:36:40;;;;;;;1999.90;241.10;;;0.70;99.90;;;;;;4958211;28;20507;-76
2022/03/04 00:39:10;;;;;;;587.87;82.47;;;0.70;99.90;;;;;;4959810;29;20454;-77
2022/03/04 00:41:40;;;;;;;1965.20;239.47;;;0.70;99.90;;;;;;4938349;29;20503;-77
2022/03/04 00:44:09;;;;;;;461.53;85.40;;;0.70;99.90;;;;;;4938205;29;20479;-77
2022/03/04 00:46:37;;;;;;;1999.90;255.80;;;0.60;99.90;;;;;;4938810;28;20515;-77
2022/03/04 00:49:06;;;;;;;626.20;76.60;;;0.70;99.90;;;;;;4940376;29;20494;-77
2022/03/04 00:51:34;;;;;;;503.70;56.33;;;0.60;99.90;;;;;;4937200;29;20460;-77
2022/03/04 00:54:03;;;;;;;1999.90;300.07;;;0.60;99.90;;;;;;4937160;29;20475;-77
2022/03/04 00:56:31;;;;;;;1915.93;245.23;;;0.60;99.90;;;;;;4937171;29;20459;-76
2022/03/04 00:59:01;;;;;;;222.93;47.40;;;0.60;99.90;;;;;;4936905;29;20482;-77
2022/03/04 01:01:29;;;;;;;672.50;91.37;;;0.70;99.90;;;;;;4946881;29;20991;-77
2022/03/04 01:03:57;;;;;;;97.33;28.00;;;0.70;99.90;;;;;;4956527;29;20483;-77
2022/03/04 01:06:26;;;;;;;1952.97;209.43;;;0.70;99.90;;;;;;4956786;28;20478;-77
2022/03/04 01:08:54;;;;;;;1974.73;269.00;;;0.70;99.90;;;;;;4955167;29;20458;-76
2022/03/04 01:11:23;;;;;;;695.47;83.27;;;0.70;99.90;;;;;;4955115;28;20447;-77
2022/03/04 01:13:51;;;;;;;1999.90;261.83;;;0.70;99.90;;;;;;4963137;28;20873;-77
2022/03/04 01:16:20;;;;;;;412.07;57.67;;;0.70;99.90;;;;;;4974414;28;20465;-77
2022/03/04 01:18:49;;;;;;;693.77;88.17;;;0.70;99.90;;;;;;4978914;28;20446;-78
2022/03/04 01:21:17;;;;;;;1745.90;225.77;;;0.70;99.90;;;;;;4978184;28;20444;-78
2022/03/04 01:23:45;;;;;;;356.47;45.87;;;0.70;99.90;;;;;;4971514;28;20856;-77
2022/03/04 01:26:14;;;;;;;1999.90;233.90;;;0.70;99.90;;;;;;4956366;29;20819;-77
2022/03/04 01:28:42;;;;;;;544.33;78.50;;;0.70;99.90;;;;;;4955164;28;20462;-77
2022/03/04 01:31:12;;;;;;;504.50;60.47;;;0.70;99.90;;;;;;4955895;28;20542;-77
2022/03/04 01:33:42;;;;;;;514.03;71.60;;;0.80;99.90;;;;;;4955754;28;20462;-77
2022/03/04 01:36:11;;;;;;;1999.90;223.73;;;0.80;99.90;;;;;;4954650;29;20490;-77
2022/03/04 01:38:39;;;;;;;1999.90;283.37;;;0.80;99.90;;;;;;4955935;28;20542;-77
2022/03/04 01:41:07;;;;;;;633.73;68.53;;;0.80;99.90;;;;;;4954561;29;20487;-77
2022/03/04 01:43:36;;;;;;;1999.90;267.50;;;0.90;99.90;;;;;;4954185;28;20573;-78
2022/03/04 01:46:14;;;;;;;565.83;73.23;;;0.90;99.90;;;;;;4954472;29;20812;-78
2022/03/04 01:48:46;;;;;;;601.13;65.77;;;0.80;99.90;;;;;;4954485;29;20451;-78
2022/03/04 01:51:14;;;;;;;1999.90;262.47;;;0.90;99.90;;;;;;4954294;28;20466;-78
2022/03/04 01:53:43;;;;;;;531.03;50.90;;;0.90;99.90;;;;;;4954385;28;20483;-78
2022/03/04 01:56:11;;;;;;;383.20;52.07;;;0.90;99.90;;;;;;4955765;28;20876;-78
2022/03/04 01:58:39;;;;;;;365.07;49.93;;;1.00;99.90;;;;;;4973282;28;20467;-78
2022/03/04 02:01:09;;;;;;;406.40;56.00;;;1.00;99.90;;;;;;4973607;28;20443;-77
2022/03/04 02:03:38;;;;;;;445.83;61.97;;;1.00;99.90;;;;;;4973352;28;20506;-78
2022/03/04 02:06:08;;;;;;;630.67;82.27;;;1.00;99.90;;;;;;4974615;28;20443;-78
2022/03/04 02:08:36;;;;;;;605.70;60.80;;;1.00;99.90;;;;;;4973424;28;20907;-77
2022/03/04 02:11:05;;;;;;;653.70;88.23;;;1.00;99.90;;;;;;4973540;28;20953;-78
2022/03/04 02:13:34;;;;;;;364.13;51.10;;;1.00;99.90;;;;;;4973333;28;20528;-77
2022/03/04 02:16:03;;;;;;;510.73;66.57;;;1.00;99.90;;;;;;4973530;28;20469;-78
2022/03/04 02:18:31;;;;;;;453.23;87.47;;;1.00;99.90;;;;;;4961455;28;20540;-77
2022/03/04 02:21:03;;;;;;;1999.90;259.13;;;1.00;99.90;;;;;;4966698;28;20445;-78
2022/03/04 02:23:32;;;;;;;672.83;79.10;;;1.00;99.90;;;;;;4972604;28;20511;-78
2022/03/04 02:26:01;;;;;;;468.87;67.37;;;1.00;99.90;;;;;;4973151;28;20940;-77
2022/03/04 02:28:29;;;;;;;384.03;56.43;;;1.00;99.90;;;;;;4973138;28;20485;-77
2022/03/04 02:30:58;;;;;;;597.90;75.40;;;1.00;99.90;;;;;;4974510;28;20513;-77
2022/03/04 02:33:26;;;;;;;437.37;67.63;;;1.00;99.90;;;;;;4956505;28;20572;-77
2022/03/04 02:35:56;;;;;;;1999.90;234.70;;;1.00;99.90;;;;;;4955264;28;20443;-77
2022/03/04 02:38:24;;;;;;;670.33;72.87;;;1.00;99.90;;;;;;4953956;28;21035;-77
2022/03/04 02:40:54;;;;;;;591.10;99.37;;;1.00;99.90;;;;;;4956024;28;20815;-78
2022/03/04 02:43:22;;;;;;;671.30;71.60;;;0.90;99.90;;;;;;4973376;28;20474;-78
2022/03/04 02:45:51;;;;;;;473.90;72.13;;;0.90;99.90;;;;;;4974621;28;20901;-77
2022/03/04 02:48:20;;;;;;;437.33;88.97;;;0.90;99.90;;;;;;4977980;28;20444;-78
2022/03/04 02:50:48;;;;;;;544.77;63.47;;;0.90;99.90;;;;;;4963969;28;20459;-77
2022/03/04 02:53:16;;;;;;;484.33;61.43;;;0.80;99.90;;;;;;4939637;29;20472;-77
2022/03/04 02:55:45;;;;;;;498.27;72.90;;;0.80;99.90;;;;;;4954316;29;20541;-77
2022/03/04 02:58:14;;;;;;;553.63;88.53;;;0.80;99.90;;;;;;4958654;28;20458;-78
2022/03/04 03:00:44;;;;;;;398.13;60.40;;;0.80;99.90;;;;;;4957190;28;20497;-77
2022/03/04 03:03:12;;;;;;;1999.90;285.90;;;0.80;99.90;;;;;;4957208;28;20609;-77
2022/03/04 03:05:41;;;;;;;718.77;88.03;;;0.70;99.90;;;;;;4958507;28;20958;-77
2022/03/04 03:08:09;;;;;;;503.97;78.37;;;0.70;99.90;;;;;;4957164;28;21072;-78
2022/03/04 03:10:37;;;;;;;1999.90;261.47;;;0.70;99.90;;;;;;4957093;28;20521;-78
2022/03/04 03:13:06;;;;;;;577.77;83.97;;;0.70;99.90;;;;;;4958331;28;20517;-77
2022/03/04 03:15:36;;;;;;;1999.90;314.93;;;0.70;99.90;;;;;;4957100;29;20971;-77
2022/03/04 03:18:04;;;;;;;523.93;58.30;;;0.70;99.90;;;;;;4957120;29;20447;-77
2022/03/04 03:20:33;;;;;;;1999.90;307.03;;;0.70;99.90;;;;;;4956499;29;20454;-77
2022/03/04 03:23:01;;;;;;;437.87;78.33;;;0.60;99.90;;;;;;4957971;28;20570;-77
2022/03/04 03:25:29;;;;;;;585.20;84.43;;;0.60;99.90;;;;;;4958283;28;20498;-77
2022/03/04 03:27:57;;;;;;;696.10;101.43;;;0.60;99.90;;;;;;4956948;28;20447;-77
2022/03/04 03:30:26;;;;;;;558.23;80.20;;;0.60;99.90;;;;;;4956697;28;20467;-77
2022/03/04 03:32:55;;;;;;;1999.90;293.47;;;0.50;99.90;;;;;;4957892;29;20466;-78
2022/03/04 03:35:25;;;;;;;442.07;88.63;;;0.50;99.90;;;;;;4956746;28;20486;-76
2022/03/04 03:37:53;;;;;;;1912.93;227.33;;;0.50;99.90;;;;;;4958098;28;20446;-77
2022/03/04 03:40:21;;;;;;;1999.90;299.03;;;0.50;99.90;;;;;;4957197;28;20543;-77
2022/03/04 03:42:50;;;;;;;1012.83;100.83;;;0.50;99.90;;;;;;4956048;28;20485;-77
2022/03/04 03:45:18;;;;;;;538.97;73.77;;;0.50;99.90;;;;;;4957946;28;20561;-78
2022/03/04 03:47:46;;;;;;;515.73;86.57;;;0.40;99.90;;;;;;4956622;28;20550;-77
2022/03/04 03:50:16;;;;;;;1999.90;302.40;;;0.40;99.90;;;;;;4956470;28;20458;-77
2022/03/04 03:52:44;;;;;;;1999.90;297.90;;;0.40;99.90;;;;;;4958246;28;20481;-77
2022/03/04 03:55:12;;;;;;;589.13;94.83;;;0.40;99.90;;;;;;4956377;28;20455;-77
2022/03/04 03:57:40;;;;;;;523.73;72.00;;;0.40;99.90;;;;;;4966190;28;20533;-77
2022/03/04 04:00:10;;;;;;;1999.90;245.30;;;0.40;99.90;;;;;;4958705;28;20561;-77
2022/03/04 04:02:42;;;;;;;410.90;62.00;;;0.40;99.90;;;;;;4955562;28;20483;-77
2022/03/04 04:05:11;;;;;;;650.97;75.00;;;0.40;99.90;;;;;;4956000;28;20470;-77
2022/03/04 04:07:41;;;;;;;1999.90;268.30;;;0.30;99.90;;;;;;4957833;28;20448;-76
2022/03/04 04:10:10;;;;;;;1999.90;277.20;;;0.30;99.90;;;;;;4956218;28;20569;-77
2022/03/04 04:12:38;;;;;;;628.30;85.60;;;0.30;99.90;;;;;;4956071;28;20996;-78
2022/03/04 04:15:07;;;;;;;1999.90;288.00;;;0.30;99.90;;;;;;4959543;28;20460;-77
2022/03/04 04:17:36;;;;;;;597.03;79.13;;;0.30;99.90;;;;;;4975335;28;20557;-78
2022/03/04 04:20:05;;;;;;;1999.90;307.23;;;0.30;99.90;;;;;;4975293;28;20448;-78
2022/03/04 04:22:33;;;;;;;409.17;75.13;;;0.30;99.90;;;;;;4954128;28;20581;-77
2022/03/04 04:25:02;;;;;;;1999.90;262.93;;;0.20;99.90;;;;;;4955798;28;20475;-77
2022/03/04 04:27:31;;;;;;;749.57;94.40;;;0.30;99.90;;;;;;4955602;28;20959;-78
2022/03/04 04:29:59;;;;;;;414.10;70.80;;;0.20;99.90;;;;;;4955717;28;20953;-77
2022/03/04 04:32:27;;;;;;;1496.40;157.50;;;0.20;99.90;;;;;;4955498;28;20470;-77
2022/03/04 04:34:55;;;;;;;1999.90;272.77;;;0.20;99.90;;;;;;4956833;28;20971;-77
2022/03/04 04:37:23;;;;;;;1999.90;262.73;;;0.20;99.90;;;;;;4955553;28;20454;-78
2022/03/04 04:39:51;;;;;;;1638.40;157.00;;;0.20;99.90;;;;;;4957066;28;20447;-77
2022/03/04 04:42:21;;;;;;;1967.13;256.90;;;0.20;99.90;;;;;;4954874;28;20549;-77
2022/03/04 04:44:49;;;;;;;1999.90;243.77;;;0.10;99.90;;;;;;4956681;29;20470;-77
2022/03/04 04:47:17;;;;;;;1999.90;255.40;;;0.10;99.90;;;;;;4955420;28;20455;-77
2022/03/04 04:49:45;;;;;;;435.90;52.13;;;0.10;99.90;;;;;;4955428;28;20972;-78
2022/03/04 04:52:14;;;;;;;1999.90;243.60;;;0.10;99.90;;;;;;4959485;29;20467;-77
2022/03/04 04:54:42;;;;;;;1999.90;272.97;;;0.10;99.90;;;;;;4962897;28;20455;-77
2022/03/04 04:57:10;;;;;;;972.37;112.30;;;0.10;99.90;;;;;;4958730;29;20450;-77
2022/03/04 04:59:40;;;;;;;460.73;59.40;;;0.10;99.90;;;;;;4958843;28;20493;-78
2022/03/04 05:02:08;;;;;;;461.03;74.90;;;0.00;99.90;;;;;;4968419;28;20550;-77
2022/03/04 05:04:37;;;;;;;1999.90;255.17;;;0.00;99.90;;;;;;4955018;28;20479;-77
2022/03/04 05:07:05;;;;;;;514.10;89.30;;;0.00;99.90;;;;;;4971169;28;20528;-78
2022/03/04 05:09:33;;;;;;;1999.90;294.10;;;0.00;99.90;;;;;;4974932;28;20528;-77
2022/03/04 05:12:01;;;;;;;550.63;78.57;;;0.00;99.90;;;;;;4972181;28;20980;-77
2022/03/04 05:14:29;;;;;;;1999.90;185.73;;;0.00;99.90;;;;;;4956184;28;20442;-78
2022/03/04 05:16:59;;;;;;;570.17;96.80;;;0.00;99.90;;;;;;4956053;28;20504;-77
2022/03/04 05:19:27;;;;;;;443.87;74.97;;;-0.10;99.90;;;;;;4954903;28;20982;-77
2022/03/04 05:21:55;;;;;;;1999.90;283.90;;;-0.10;99.90;;;;;;4957575;28;20998;-77
2022/03/04 05:24:23;;;;;;;1999.90;301.13;;;-0.10;99.90;;;;;;4971231;28;20564;-77
2022/03/04 05:26:55;;;;;;;1870.40;161.47;;;-0.10;99.90;;;;;;4955905;29;20499;-77
2022/03/04 05:29:23;;;;;;;564.23;82.07;;;-0.10;99.90;;;;;;4956259;28;20541;-77
2022/03/04 05:31:51;;;;;;;1999.90;220.23;;;-0.10;99.90;;;;;;4955865;28;20450;-77
2022/03/04 05:34:20;;;;;;;1999.90;225.57;;;-0.20;99.90;;;;;;4955780;28;21047;-78
2022/03/04 05:36:48;;;;;;;1999.90;261.83;;;-0.20;99.90;;;;;;4954618;28;20505;-77
2022/03/04 05:39:17;;;;;;;613.20;72.90;;;-0.20;99.90;;;;;;4955647;28;20465;-77
2022/03/04 05:41:45;;;;;;;406.37;60.57;;;-0.20;99.90;;;;;;4954376;28;20525;-78
2022/03/04 05:44:14;;;;;;;1999.90;273.60;;;-0.20;99.90;;;;;;4951767;28;20469;-77
2022/03/04 05:46:42;;;;;;;1999.90;263.17;;;-0.30;99.90;;;;;;4954391;28;20525;-77
2022/03/04 05:49:10;;;;;;;1999.90;376.27;;;-0.30;99.90;;;;;;4954493;28;20462;-77
2022/03/04 05:51:40;;;;;;;441.67;81.67;;;-0.30;99.90;;;;;;4945115;28;20463;-78
2022/03/04 05:54:08;;;;;;;643.53;56.60;;;-0.30;99.90;;;;;;4935157;29;20580;-77
2022/03/04 05:56:36;;;;;;;955.43;112.93;;;-0.30;99.90;;;;;;4953620;29;20480;-78
2022/03/04 05:59:05;;;;;;;1461.10;159.07;;;-0.30;99.90;;;;;;4953943;28;20557;-77
2022/03/04 06:01:33;;;;;;;1541.63;122.90;;;-0.40;99.90;;;;;;4966074;28;20460;-77
2022/03/04 06:04:01;;;;;;;1133.03;92.47;;;-0.40;99.90;;;;;;4974677;28;20809;-77
2022/03/04 06:06:29;;;;;;;480.13;95.77;;;-0.40;99.90;;;;;;4971303;28;20569;-77
2022/03/04 06:08:59;;;;;;;595.60;84.97;;;-0.40;99.90;;;;;;4973680;28;20450;-77
2022/03/04 06:11:27;;;;;;;1999.90;241.43;;;-0.50;99.90;;;;;;4973365;28;20972;-77
2022/03/04 06:13:55;;;;;;;1951.47;199.87;;;-0.50;99.90;;;;;;4973411;28;20457;-77
2022/03/04 06:16:23;;;;;;;1999.90;224.57;;;-0.50;99.90;;;;;;4973515;28;20462;-77
2022/03/04 06:18:52;;;;;;;1949.87;204.77;;;-0.50;99.90;;;;;;4973007;28;21017;-76
2022/03/04 06:21:21;;;;;;;1052.80;116.37;;;-0.50;99.90;;;;;;4976918;28;20544;-77
2022/03/04 06:23:49;;;;;;;1999.90;217.97;;;-0.50;99.90;;;;;;4977171;28;20702;-77
2022/03/04 06:26:20;;;;;;;1999.90;302.83;;;-0.50;99.90;;;;;;4977245;28;20576;-76
2022/03/04 06:28:48;;;;;;;1265.50;98.90;;;-0.50;99.90;;;;;;4978745;28;20437;-77
2022/03/04 06:31:17;;;;;;;844.63;109.93;;;-0.60;99.90;;;;;;4977976;28;20453;-77
2022/03/04 06:33:47;;;;;;;1486.23;136.50;;;-0.60;99.90;;;;;;4979437;28;20461;-77
2022/03/04 06:36:15;;;;;;;1763.97;172.43;;;-0.60;99.90;;;;;;4977083;28;20442;-76
2022/03/04 06:38:46;;;;;;;1549.40;147.33;;;-0.60;99.90;;;;;;4978151;28;20448;-77
2022/03/04 06:41:15;;;;;;;1948.27;182.17;;;-0.60;99.90;;;;;;4977332;28;20442;-77
2022/03/04 06:43:45;;;;;;;1999.90;233.73;;;-0.60;99.90;;;;;;4978052;28;20468;-77
2022/03/04 06:46:13;;;;;;;482.67;56.57;;;-0.60;99.90;;;;;;4977919;28;20473;-77
2022/03/04 06:48:41;;;;;;;609.13;88.43;;;-0.60;99.90;;;;;;4976734;28;20449;-77
2022/03/04 06:51:09;;;;;;;764.57;101.87;;;-0.50;99.90;;;;;;4976878;28;20460;-77
2022/03/04 06:53:38;;;;;;;1407.90;178.57;;;-0.50;99.90;;;;;;4977021;28;20466;-77
2022/03/04 06:56:06;;;;;;;1572.37;189.30;;;-0.50;99.90;;;;;;4978245;28;20540;-76
2022/03/04 06:58:37;;;;;;;755.73;84.63;;;-0.50;99.90;;;;;;4977352;28;20980;-77
2022/03/04 07:01:07;;;;;;;1989.27;183.60;;;-0.50;99.90;;;;;;4975363;28;21027;-77
2022/03/04 07:03:35;;;;;;;1043.27;85.73;;;-0.40;99.90;;;;;;4975258;28;20473;-77
2022/03/04 07:06:04;;;;;;;1006.13;100.40;;;-0.40;99.90;;;;;;4975565;28;20473;-77
2022/03/04 07:08:36;;;;;;;1999.90;290.07;;;-0.40;99.90;;;;;;4976415;28;20799;-77
2022/03/04 07:11:04;;;;;;;531.03;73.90;;;-0.30;99.90;;;;;;4975203;28;20467;-77
2022/03/04 07:13:32;;;;;;;1999.90;233.97;;;-0.30;99.90;;;;;;4975023;28;20465;-77
2022/03/04 07:16:01;;;;;;;1743.17;181.03;;;-0.30;99.90;;;;;;4975165;28;20997;-77
2022/03/04 07:18:31;;;;;;;376.13;52.70;;;-0.30;99.90;;;;;;4974922;28;20541;-76
2022/03/04 07:21:00;;;;;;;1999.90;272.07;;;-0.20;99.90;;;;;;4974923;28;20457;-77
2022/03/04 07:23:29;;;;;;;250.93;42.60;;;-0.20;99.90;;;;;;4974757;28;20552;-77
2022/03/04 07:25:57;;;;;;;503.83;63.07;;;-0.20;99.90;;;;;;4974885;28;20498;-77
2022/03/04 07:28:26;;;;;;;1812.57;180.70;;;-0.10;99.90;;;;;;4975124;28;20450;-78
2022/03/04 07:30:54;;;;;;;74.97;33.03;;;-0.10;99.90;;;;;;4974887;28;20455;-77
2022/03/04 07:33:22;;;;;;;466.93;57.20;;;-0.10;99.90;;;;;;4974851;28;20481;-77
2022/03/04 07:35:51;;;;;;;379.37;52.00;;;0.00;99.90;;;;;;4975044;28;20528;-78
2022/03/04 07:38:20;;;;;;;1918.10;227.87;;;0.00;99.90;;;;;;4976202;28;20855;-78
2022/03/04 07:40:48;;;;;;;367.63;70.90;;;0.10;99.90;;;;;;4974872;28;20469;-77
2022/03/04 07:43:16;;;;;;;519.47;67.23;;;0.20;99.90;;;;;;4976563;28;20469;-77
2022/03/04 07:45:44;;;;;;;345.27;43.17;;;0.20;99.90;;;;;;4976202;28;20544;-77
2022/03/04 07:48:12;;;;;;;413.50;47.87;;;0.30;99.90;;;;;;4974725;28;20445;-78
2022/03/04 07:50:40;;;;;;;207.70;35.03;;;0.40;99.90;;;;;;4974828;28;20493;-77
2022/03/04 07:53:10;;;;;;;270.73;44.23;;;0.40;99.90;;;;;;4974829;28;20480;-78
2022/03/04 07:55:38;;;;;;;428.50;51.57;;;0.50;99.90;;;;;;4974784;28;21034;-77
2022/03/04 07:58:07;;;;;;;390.43;52.70;;;0.60;99.90;;;;;;4935504;28;1142805;-78
2022/03/04 08:00:35;;;;;;;383.87;46.93;;;0.60;99.90;;;;;;4977283;28;20204;-78
2022/03/04 08:03:03;;;;;;;1767.30;213.73;;;0.70;99.90;;;;;;4976860;28;20461;-77
2022/03/04 08:05:33;;;;;;;552.77;65.53;;;0.80;99.90;;;;;;4976680;28;20446;-78
2022/03/04 08:08:01;;;;;;;657.80;86.83;;;0.80;99.90;;;;;;4975089;28;20475;-78
2022/03/04 08:10:32;;;;;;;356.67;55.70;;;0.90;99.90;;;;;;4976587;28;20452;-78
2022/03/04 08:13:00;;;;;;;343.30;58.77;;;1.00;99.90;;;;;;4975317;28;20479;-78
2022/03/04 08:15:28;;;;;;;296.27;42.43;;;1.00;99.90;;;;;;4974990;28;20458;-78
2022/03/04 08:17:56;;;;;;;446.13;63.60;;;1.00;99.90;;;;;;4975391;28;20958;-78
2022/03/04 08:20:26;;;;;;;656.97;107.80;;;1.10;99.90;;;;;;4974096;28;20566;-77
2022/03/04 08:22:57;;;;;;;586.23;72.47;;;1.20;99.90;;;;;;4976806;28;20573;-77
2022/03/04 08:25:25;;;;;;;547.90;56.20;;;1.20;99.90;;;;;;4979361;28;20455;-77
2022/03/04 08:27:55;;;;;;;591.60;63.60;;;1.30;99.90;;;;;;4977271;28;21058;-77
2022/03/04 08:30:23;;;;;;;1136.33;187.57;;;1.40;99.90;;;;;;4975822;28;20455;-77
2022/03/04 08:32:52;;;;;;;1322.37;206.27;;;1.40;99.90;;;;;;4975796;28;21007;-78
2022/03/04 08:35:21;;;;;;;798.50;152.90;;;1.50;99.90;;;;;;4976248;28;20943;-78
2022/03/04 08:37:49;;;;;;;451.17;47.50;;;1.50;99.90;;;;;;4975587;28;20533;-77
2022/03/04 08:40:17;;;;;;;416.43;44.83;;;1.60;99.90;;;;;;4976136;28;20456;-78
2022/03/04 08:42:46;;;;;;;612.40;64.33;;;1.60;99.90;;;;;;4974550;28;20482;-77
2022/03/04 08:45:17;;;;;;;402.53;52.87;;;1.60;99.90;;;;;;4977497;28;20465;-78
2022/03/04 08:47:46;;;;;;;1999.90;274.00;;;1.70;99.90;;;;;;4975788;28;20993;-79
2022/03/04 08:50:17;;;;;;;322.80;103.23;;;1.70;99.90;;;;;;4975626;28;20541;-78
2022/03/04 08:52:45;;;;;;;349.13;53.37;;;1.70;99.90;;;;;;4977554;28;20462;-78
2022/03/04 08:55:15;;;;;;;667.57;72.57;;;1.80;99.90;;;;;;4975889;28;20442;-78
2022/03/04 08:57:44;;;;;;;548.50;57.23;;;1.80;99.90;;;;;;4975823;28;20498;-78
2022/03/04 09:00:14;;;;;;;637.37;67.97;;;1.80;99.90;;;;;;4977600;28;20439;-78
2022/03/04 09:02:44;;;;;;;1999.90;332.47;;;1.90;99.90;;;;;;4978113;28;20885;-78
2022/03/04 09:05:13;;;;;;;479.47;40.97;;;1.90;99.90;;;;;;4979408;28;20512;-78
2022/03/04 09:07:41;;;;;;;335.83;74.80;;;1.90;99.90;;;;;;4980805;28;20470;-78
2022/03/04 09:10:10;;;;;;;78.43;34.73;;;1.90;99.90;;;;;;4976705;28;20458;-78
2022/03/04 09:12:38;;;;;;;460.93;84.13;;;2.00;99.90;;;;;;4978086;28;20509;-78
2022/03/04 09:15:08;;;;;;;635.47;70.63;;;2.00;99.90;;;;;;4977755;28;20457;-78
2022/03/04 09:17:36;;;;;;;425.80;49.23;;;2.00;99.90;;;;;;4975477;28;20456;-78
2022/03/04 09:20:07;;;;;;;497.67;79.43;;;2.00;99.90;;;;;;4976189;28;20505;-77
2022/03/04 09:22:35;;;;;;;275.97;61.60;;;2.00;99.90;;;;;;4975403;28;20566;-78
2022/03/04 09:25:04;;;;;;;638.63;80.47;;;2.00;99.90;;;;;;4975517;28;20530;-78
2022/03/04 09:27:32;;;;;;;1906.93;261.17;;;2.10;99.90;;;;;;4976156;28;20929;-78
2022/03/04 09:30:00;;;;;;;1767.17;242.57;;;2.10;99.90;;;;;;4975895;28;20790;-77
2022/03/04 09:32:28;;;;;;;484.17;48.03;;;2.20;99.90;;;;;;4975430;28;20561;-78
2022/03/04 09:34:56;;;;;;;503.80;62.43;;;2.20;99.90;;;;;;4974685;28;20462;-78
2022/03/04 09:37:26;;;;;;;405.67;48.33;;;2.30;99.90;;;;;;4974537;28;20524;-79
2022/03/04 09:39:54;;;;;;;670.37;86.07;;;2.40;99.90;;;;;;4974741;28;20522;-78
2022/03/04 09:42:22;;;;;;;641.77;66.43;;;2.40;99.90;;;;;;4976235;28;20441;-78
2022/03/04 09:44:51;;;;;;;397.80;74.73;;;2.50;99.90;;;;;;4974621;28;20453;-78
2022/03/04 09:47:23;;;;;;;696.17;61.00;;;2.50;99.90;;;;;;4975507;28;20476;-78
2022/03/04 09:49:53;;;;;;;550.97;68.23;;;2.50;99.90;;;;;;4975641;28;20527;-77
2022/03/04 09:52:21;;;;;;;771.73;101.07;;;2.50;99.90;;;;;;4974086;28;20447;-78
2022/03/04 09:54:53;;;;;;;571.70;63.83;;;2.60;99.90;;;;;;4974494;28;20448;-78
2022/03/04 09:57:22;;;;;;;533.00;104.33;;;2.70;99.90;;;;;;4974122;28;20463;-78
2022/03/04 09:59:50;;;;;;;541.33;91.63;;;2.70;99.90;;;;;;4974377;28;20453;-78
2022/03/04 10:02:19;;;;;;;796.93;97.43;;;2.80;99.90;;;;;;4975562;28;20488;-78
2022/03/04 10:04:58;;;;;;;927.30;110.03;;;2.80;99.90;;;;;;4974452;28;20957;-78
2022/03/04 10:07:27;;;;;;;1478.77;176.53;;;2.90;99.90;;;;;;4974451;28;20473;-78
2022/03/04 10:10:00;;;;;;;1134.50;140.20;;;2.90;99.90;;;;;;4976127;28;20475;-78
2022/03/04 10:12:29;;;;;;;672.27;95.43;;;3.00;99.90;;;;;;4974321;28;20477;-78
2022/03/04 10:15:00;;;;;;;773.20;104.17;;;3.00;99.90;;;;;;4974140;28;20516;-78
2022/03/04 10:17:32;;;;;;;608.00;94.03;;;3.00;99.90;;;;;;4976414;28;20455;-78
2022/03/04 10:20:02;;;;;;;598.67;85.33;;;3.10;99.90;;;;;;4976057;28;20449;-78
2022/03/04 10:22:42;;;;;;;863.43;140.57;;;3.10;99.90;;;;;;4973258;28;20481;-78
2022/03/04 10:25:26;;;;;;;826.93;94.03;;;3.20;99.90;;;;;;4975615;28;20527;-78
2022/03/04 10:27:54;;;;;;;801.73;100.70;;;3.20;99.90;;;;;;4974214;28;20469;-77
2022/03/04 10:30:31;;;;;;;819.90;114.53;;;3.30;99.90;;;;;;4974552;28;20955;-78
2022/03/04 10:33:07;;;;;;;721.70;102.07;;;3.40;99.90;;;;;;4975055;28;20513;-78
2022/03/04 10:35:36;;;;;;;1089.53;124.20;;;3.50;99.90;;;;;;4974493;28;20540;-78
2022/03/04 10:38:06;;;;;;;1137.37;169.67;;;3.50;99.90;;;;;;4975369;28;20434;-79
2022/03/04 10:40:42;;;;;;;799.87;135.70;;;3.60;99.90;;;;;;4975431;28;20441;-79
2022/03/04 10:43:13;;;;;;;1142.47;147.90;;;3.70;99.90;;;;;;4975413;28;21027;-79
2022/03/04 10:45:44;;;;;;;1031.17;125.77;;;3.80;99.90;;;;;;4975258;28;20886;-78
2022/03/04 10:48:14;;;;;;;1421.53;223.20;;;3.80;99.90;;;;;;4976538;28;20469;-78
2022/03/04 10:50:44;;;;;;;1142.03;175.33;;;3.90;99.90;;;;;;4976482;28;20437;-78
2022/03/04 10:53:14;;;;;;;1380.97;208.33;;;4.00;99.90;;;;;;4975235;28;21058;-78
2022/03/04 10:55:45;;;;;;;1379.40;191.63;;;4.10;99.90;;;;;;4975469;28;20974;-79
2022/03/04 10:58:16;;;;;;;1461.80;210.20;;;4.10;99.90;;;;;;4976500;28;20868;-78
2022/03/04 11:00:47;;;;;;;1313.00;216.07;;;4.30;99.90;;;;;;4975171;28;20958;-78
2022/03/04 11:03:17;;;;;;;1973.00;355.17;;;4.40;99.90;;;;;;4975387;28;20484;-78
2022/03/04 11:05:47;;;;;;;1766.47;383.60;;;4.40;99.90;;;;;;4975560;28;20979;-78
2022/03/04 11:08:16;;;;;;;1916.77;419.10;;;4.40;99.90;;;;;;4978971;28;20971;-79
2022/03/04 11:10:45;;;;;;;1277.57;248.77;;;4.50;99.90;;;;;;4979291;28;20450;-78
2022/03/04 11:13:14;;;;;;;1399.03;260.73;;;4.40;99.90;;;;;;4981200;28;20823;-78
2022/03/04 11:15:45;;;;;;;1931.97;401.10;;;4.40;99.90;;;;;;4979907;28;20969;-78
2022/03/04 11:18:15;;;;;;;1516.23;266.80;;;4.40;99.90;;;;;;4980778;28;20782;-77
2022/03/04 11:20:45;;;;;;;1654.47;339.73;;;4.40;99.90;;;;;;4979213;28;20453;-78
2022/03/04 11:23:18;;;;;;;1041.00;168.77;;;4.40;99.90;;;;;;4978905;28;20480;-78
2022/03/04 11:25:55;;;;;;;1463.90;244.37;;;4.40;99.90;;;;;;4979151;28;20453;-78
2022/03/04 11:28:35;;;;;;;1508.40;273.93;;;4.40;99.90;;;;;;4976286;28;20479;-78
2022/03/04 11:31:06;;;;;;;1444.87;258.77;;;4.50;99.90;;;;;;4978081;28;20879;-77
2022/03/04 11:33:37;;;;;;;1274.10;228.53;;;4.50;99.90;;;;;;4977748;28;20580;-77
2022/03/04 11:36:08;;;;;;;1289.93;260.33;;;4.50;99.90;;;;;;4977750;28;20946;-79
2022/03/04 11:39:13;;;;;;;1393.63;287.27;;;4.60;99.90;;;;;;4977841;28;20448;-78
2022/03/04 11:42:14;;;;;;;774.90;140.83;;;4.60;99.90;;;;;;4978669;28;20450;-78
2022/03/04 11:44:58;;;;;;;988.77;246.20;;;4.60;99.90;;;;;;4978827;28;20462;-78
2022/03/04 11:47:31;;;;;;;977.63;165.77;;;4.70;99.90;;;;;;4978628;28;20461;-78
2022/03/04 11:49:59;;;;;;;1167.93;244.93;;;4.70;99.90;;;;;;4977304;28;20974;-78
2022/03/04 11:52:41;;;;;;;1790.63;416.00;;;4.70;99.90;;;;;;4978530;28;20481;-78
2022/03/04 11:55:26;;;;;;;1420.20;332.30;;;4.80;99.90;;;;;;4981602;28;20457;-78
2022/03/04 11:58:04;;;;;;;1250.77;229.53;;;4.80;99.90;;;;;;4977971;28;20454;-79
2022/03/04 12:00:37;;;;;;;1640.87;383.20;;;4.90;99.90;;;;;;4977546;28;20441;-78
2022/03/04 12:03:27;;;;;;;1748.67;353.90;;;5.00;99.90;;;;;;4978208;28;20497;-78
2022/03/04 12:06:04;;;;;;;1317.53;294.10;;;5.00;99.90;;;;;;4975422;28;20450;-78
2022/03/04 12:08:41;;;;;;;1612.40;204.00;;;5.00;99.90;;;;;;4978825;28;20469;-78
2022/03/04 12:11:22;;;;;;;1074.10;199.27;;;5.10;99.90;;;;;;4978679;28;20795;-78
2022/03/04 12:14:08;;;;;;;1820.30;355.93;;;5.10;99.90;;;;;;4978603;28;20488;-78
2022/03/04 12:16:49;;;;;;;1318.53;226.60;;;5.20;99.90;;;;;;4976937;28;20538;-78
2022/03/04 12:19:30;;;;;;;1695.70;353.40;;;5.20;99.90;;;;;;4975922;28;20442;-78
2022/03/04 12:21:58;;;;;;;1999.90;366.70;;;5.30;99.90;;;;;;4977037;28;20524;-78
2022/03/04 12:24:31;;;;;;;1892.13;411.47;;;5.30;99.90;;;;;;4977084;28;20477;-78
2022/03/04 12:27:00;;;;;;;1617.60;316.70;;;5.30;99.90;;;;;;4977052;28;20803;-78
2022/03/04 12:29:47;;;;;;;1901.67;419.30;;;5.30;99.90;;;;;;4975543;28;20458;-78